createdAt,value
2019-02-06T00:01:45.305Z,4.47
2019-02-06T00:04:28.904Z,5.08
2019-02-06T00:07:02.977Z,5.50
2019-02-06T00:09:38.147Z,4.35
2019-02-06T00:12:12.232Z,6.05
2019-02-06T00:14:47.026Z,5.97
2019-02-06T00:17:21.083Z,4.80
2019-02-06T00:19:55.335Z,5.00
2019-02-06T00:22:29.469Z,4.80
2019-02-06T00:25:03.395Z,4.90
2019-02-06T00:27:36.740Z,3.42
2019-02-06T00:30:11.496Z,3.98
2019-02-06T00:32:45.961Z,4.80
2019-02-06T00:35:25.838Z,4.30
2019-02-06T00:37:56.340Z,5.08
2019-02-06T00:40:30.683Z,3.33
2019-02-06T00:43:04.949Z,5.40
2019-02-06T00:45:38.367Z,3.22
2019-02-06T00:48:12.458Z,3.35
2019-02-06T00:50:46.648Z,4.25
2019-02-06T00:53:20.572Z,6.92
2019-02-06T00:55:54.431Z,3.65
2019-02-06T00:58:28.843Z,14.47
2019-02-06T01:01:10.680Z,7.12
2019-02-06T01:03:44.942Z,4.53
2019-02-06T01:06:20.317Z,4.70
2019-02-06T01:08:54.696Z,5.72
2019-02-06T01:11:28.924Z,4.35
2019-02-06T01:14:02.860Z,5.80
2019-02-06T01:16:36.890Z,6.20
2019-02-06T01:19:10.531Z,5.12
2019-02-06T01:21:44.781Z,6.72
2019-02-06T01:24:18.567Z,5.97
2019-02-06T01:26:52.692Z,5.90
2019-02-06T01:29:27.120Z,5.90
2019-02-06T01:32:01.287Z,7.70
2019-02-06T01:34:35.540Z,5.47
2019-02-06T01:37:09.794Z,8.65
2019-02-06T01:39:43.983Z,7.95
2019-02-06T01:42:17.875Z,7.80
2019-02-06T01:44:51.882Z,13.25
2019-02-06T01:47:25.905Z,15.48
2019-02-06T01:49:59.840Z,9.45
2019-02-06T01:52:33.979Z,7.90
2019-02-06T01:55:09.113Z,9.00
2019-02-06T01:57:43.453Z,12.33
2019-02-06T02:00:20.274Z,13.15
2019-02-06T02:03:06.846Z,12.05
2019-02-06T02:06:01.983Z,10.65
2019-02-06T02:08:27.537Z,13.10
2019-02-06T02:11:01.676Z,13.53
2019-02-06T02:13:49.714Z,12.93
2019-02-06T02:16:24.945Z,11.43
2019-02-06T02:18:59.013Z,11.05
2019-02-06T02:21:33.128Z,11.48
2019-02-06T02:24:06.717Z,12.55
2019-02-06T02:26:43.186Z,14.53
2019-02-06T02:29:17.743Z,14.60
2019-02-06T02:31:51.888Z,23.73
2019-02-06T02:34:25.846Z,29.50
2019-02-06T02:36:59.977Z,35.75
2019-02-06T02:39:43.208Z,31.87
2019-02-06T02:42:17.410Z,28.57
2019-02-06T02:44:51.147Z,30.25
2019-02-06T02:47:25.006Z,25.27
2019-02-06T02:49:59.166Z,23.57
2019-02-06T02:52:33.809Z,24.70
2019-02-06T02:55:08.459Z,25.72
2019-02-06T02:57:42.948Z,25.75
2019-02-06T03:00:23.437Z,22.42
2019-02-06T03:03:24.029Z,23.50
2019-02-06T03:05:58.505Z,30.77
2019-02-06T03:08:32.816Z,41.20
2019-02-06T03:11:06.933Z,39.03
2019-02-06T03:13:42.285Z,30.02
2019-02-06T03:16:16.587Z,24.07
2019-02-06T03:18:51.116Z,23.62
2019-02-06T03:21:25.133Z,29.70
2019-02-06T03:24:03.934Z,26.37
2019-02-06T03:26:38.453Z,35.75
2019-02-06T03:29:12.617Z,30.05
2019-02-06T03:31:46.699Z,33.00
2019-02-06T03:34:20.809Z,29.52
2019-02-06T03:36:54.819Z,25.90
2019-02-06T03:39:29.082Z,18.48
2019-02-06T03:42:03.462Z,23.40
2019-02-06T03:44:38.010Z,22.45
2019-02-06T03:47:12.446Z,22.32
2019-02-06T03:49:48.252Z,33.65
2019-02-06T03:52:21.907Z,32.10
2019-02-06T03:54:57.122Z,20.85
2019-02-06T03:57:31.285Z,20.30
2019-02-06T04:00:06.431Z,19.85
2019-02-06T04:02:40.960Z,24.90
2019-02-06T04:05:26.918Z,30.62
2019-02-06T04:08:11.737Z,24.80
2019-02-06T04:10:46.417Z,28.02
2019-02-06T04:13:32.094Z,21.90
2019-02-06T04:16:06.591Z,28.47
2019-02-06T04:18:40.818Z,35.78
2019-02-06T04:21:15.005Z,39.50
2019-02-06T04:23:50.325Z,37.45
2019-02-06T04:26:24.544Z,45.88
2019-02-06T04:28:58.560Z,36.90
2019-02-06T04:31:32.873Z,45.55
2019-02-06T04:34:06.929Z,29.02
2019-02-06T04:36:41.482Z,29.60
2019-02-06T04:39:15.203Z,31.70
2019-02-06T04:41:49.343Z,29.98
2019-02-06T04:44:23.426Z,38.38
2019-02-06T04:46:57.272Z,35.33
2019-02-06T04:49:31.189Z,29.27
2019-02-06T04:52:06.360Z,27.80
2019-02-06T04:54:52.047Z,101.62
2019-02-06T04:57:38.700Z,129.57
2019-02-06T05:00:24.596Z,94.10
2019-02-06T05:03:10.375Z,72.47
2019-02-06T05:05:56.315Z,31.45
2019-02-06T05:08:42.875Z,35.80
2019-02-06T05:11:21.661Z,40.88
2019-02-06T05:13:57.311Z,35.52
2019-02-06T05:16:31.500Z,40.52
2019-02-06T05:19:05.767Z,57.73
2019-02-06T05:21:40.004Z,40.65
2019-02-06T05:24:14.259Z,34.60
2019-02-06T05:26:48.503Z,46.13
2019-02-06T05:29:23.566Z,50.80
2019-02-06T05:31:57.732Z,59.85
2019-02-06T05:34:32.666Z,131.80
2019-02-06T05:37:07.081Z,44.80
2019-02-06T05:39:41.238Z,55.73
2019-02-06T05:42:15.572Z,50.80
2019-02-06T05:44:50.049Z,40.78
2019-02-06T05:47:25.845Z,74.47
2019-02-06T05:50:01.233Z,68.00
2019-02-06T05:52:35.002Z,60.25
2019-02-06T05:55:09.629Z,65.75
2019-02-06T05:57:43.947Z,45.08
2019-02-06T06:00:22.872Z,34.30
2019-02-06T06:02:58.201Z,67.12
2019-02-06T06:05:42.216Z,52.25
2019-02-06T06:08:16.673Z,63.35
2019-02-06T06:10:51.119Z,129.68
2019-02-06T06:13:25.341Z,108.17
2019-02-06T06:15:59.773Z,95.83
2019-02-06T06:18:33.966Z,100.87
2019-02-06T06:21:08.298Z,104.12
2019-02-06T06:23:44.316Z,100.87
2019-02-06T06:26:18.636Z,104.07
2019-02-06T06:28:54.256Z,78.40
2019-02-06T06:31:28.422Z,64.10
2019-02-06T06:34:02.749Z,65.72
2019-02-06T06:36:37.668Z,52.67
2019-02-06T06:39:11.697Z,57.95
2019-02-06T06:41:46.142Z,53.87
2019-02-06T06:44:20.860Z,40.75
2019-02-06T06:47:09.941Z,40.38
2019-02-06T06:49:45.753Z,39.30
2019-02-06T06:52:19.955Z,62.05
2019-02-06T06:54:54.483Z,102.15
2019-02-06T06:57:28.559Z,89.45
2019-02-06T07:00:03.633Z,73.85
2019-02-06T07:02:37.816Z,63.65
2019-02-06T07:05:12.143Z,27.75
2019-02-06T07:07:46.595Z,34.38
2019-02-06T07:10:21.385Z,41.77
2019-02-06T07:12:56.076Z,55.03
2019-02-06T07:15:36.908Z,48.17
2019-02-06T07:18:11.341Z,67.25
2019-02-06T07:20:46.431Z,80.72
2019-02-06T07:23:21.036Z,81.85
2019-02-06T07:25:55.584Z,52.25
2019-02-06T07:28:41.995Z,119.65
2019-02-06T07:31:25.512Z,72.95
2019-02-06T07:33:59.811Z,62.58
2019-02-06T07:36:39.907Z,86.87
2019-02-06T07:39:14.442Z,81.35
2019-02-06T07:41:50.474Z,78.02
2019-02-06T07:44:23.843Z,69.35
2019-02-06T07:46:58.118Z,63.33
2019-02-06T07:49:32.852Z,47.38
2019-02-06T07:52:07.492Z,35.15
2019-02-06T07:54:41.936Z,31.33
2019-02-06T07:57:16.378Z,44.48
2019-02-06T07:59:50.391Z,57.67
2019-02-06T08:02:25.345Z,55.92
2019-02-06T08:04:59.603Z,41.02
2019-02-06T08:07:34.407Z,33.88
2019-02-06T08:10:11.638Z,26.33
2019-02-06T08:12:46.266Z,46.77
2019-02-06T08:15:21.607Z,25.77
2019-02-06T08:17:55.859Z,23.35
2019-02-06T08:20:30.500Z,18.17
2019-02-06T08:23:04.730Z,71.77
2019-02-06T08:25:39.063Z,80.80
2019-02-06T08:28:13.457Z,69.32
2019-02-06T08:30:59.002Z,41.02
2019-02-06T08:33:45.522Z,44.45
2019-02-06T08:36:33.181Z,46.20
2019-02-06T08:39:11.476Z,39.95
2019-02-06T08:41:45.751Z,26.77
2019-02-06T08:44:21.655Z,86.20
2019-02-06T08:46:56.104Z,26.40
2019-02-06T08:49:31.306Z,51.85
2019-02-06T08:52:05.861Z,30.17
2019-02-06T08:54:51.555Z,29.05
2019-02-06T08:57:28.040Z,30.50
2019-02-06T09:00:02.619Z,16.75
2019-02-06T09:02:38.269Z,43.42
2019-02-06T09:05:12.853Z,26.40
2019-02-06T09:07:47.594Z,26.40
2019-02-06T09:10:23.027Z,25.08
2019-02-06T09:12:57.136Z,35.48
2019-02-06T09:15:31.076Z,47.03
2019-02-06T09:18:07.378Z,23.92
2019-02-06T09:20:41.680Z,20.48
2019-02-06T09:23:16.190Z,17.15
2019-02-06T09:25:50.649Z,19.65
2019-02-06T09:28:24.860Z,30.45
2019-02-06T09:30:59.311Z,28.73
2019-02-06T09:33:33.719Z,30.10
2019-02-06T09:36:08.261Z,23.85
2019-02-06T09:38:43.021Z,34.95
2019-02-06T09:41:20.062Z,36.08
2019-02-06T09:43:54.299Z,26.33
2019-02-06T09:46:28.448Z,37.25
2019-02-06T09:49:03.311Z,31.73
2019-02-06T09:51:37.655Z,41.63
2019-02-06T09:54:12.409Z,56.92
2019-02-06T09:56:58.081Z,55.33
2019-02-06T09:59:41.692Z,41.25
2019-02-06T10:08:44.671Z,44.25
2019-02-06T10:11:29.051Z,29.75
2019-02-06T10:14:28.039Z,26.87
2019-02-06T10:17:30.303Z,23.47
2019-02-06T10:20:16.993Z,28.67
2019-02-06T10:23:05.571Z,33.92
2019-02-06T10:25:53.914Z,24.75
2019-02-06T10:28:35.412Z,42.85
2019-02-06T10:31:24.707Z,58.55
2019-02-06T10:33:59.909Z,27.27
2019-02-06T10:36:45.257Z,20.08
2019-02-06T10:39:19.636Z,35.88
2019-02-06T10:41:54.062Z,21.27
2019-02-06T10:44:28.024Z,27.55
2019-02-06T10:47:03.431Z,25.08
2019-02-06T10:49:38.097Z,30.12
2019-02-06T10:52:12.765Z,28.38
2019-02-06T10:54:47.084Z,35.90
2019-02-06T10:57:21.968Z,30.45
2019-02-06T10:59:57.580Z,20.48
2019-02-06T11:02:34.644Z,21.70
2019-02-06T11:05:10.663Z,24.32
2019-02-06T11:07:46.191Z,32.30
2019-02-06T11:10:22.244Z,35.85
2019-02-06T11:12:57.617Z,23.65
2019-02-06T11:15:32.493Z,25.60
2019-02-06T11:18:09.892Z,35.73
2019-02-06T11:20:44.682Z,24.50
2019-02-06T11:23:18.613Z,33.30
2019-02-06T11:32:19.696Z,22.00
2019-02-06T11:35:03.432Z,27.45
2019-02-06T11:37:37.814Z,44.85
2019-02-06T11:40:16.869Z,37.03
2019-02-06T11:42:51.146Z,37.85
2019-02-06T11:45:39.205Z,48.83
2019-02-06T11:48:13.901Z,29.60
2019-02-06T11:50:48.097Z,34.27
2019-02-06T11:53:26.516Z,30.45
2019-02-06T11:56:00.752Z,27.87
2019-02-06T11:58:34.969Z,28.60
2019-02-06T12:01:41.922Z,24.63
2019-02-06T12:04:16.394Z,36.88
2019-02-06T12:07:00.699Z,38.30
2019-02-06T12:09:41.489Z,38.05
2019-02-06T12:12:15.888Z,25.72
2019-02-06T12:14:51.350Z,37.80
2019-02-06T12:17:25.960Z,22.00
2019-02-06T12:20:00.279Z,48.50
2019-02-06T12:22:34.582Z,37.58
2019-02-06T12:25:09.722Z,53.40
2019-02-06T12:27:45.245Z,41.58
2019-02-06T12:30:29.631Z,29.07
2019-02-06T12:33:04.269Z,30.97
2019-02-06T12:35:38.573Z,24.57
2019-02-06T12:38:12.568Z,32.78
2019-02-06T12:40:47.564Z,25.15
2019-02-06T12:43:23.117Z,19.37
2019-02-06T12:45:58.603Z,17.20
2019-02-06T12:48:33.672Z,19.90
2019-02-06T12:51:08.172Z,14.65
2019-02-06T12:53:42.756Z,17.90
2019-02-06T12:56:29.201Z,20.12
2019-02-06T12:59:13.094Z,18.23
2019-02-06T13:01:47.482Z,38.38
2019-02-06T13:04:23.547Z,41.75
2019-02-06T13:07:00.237Z,29.90
2019-02-06T13:09:34.985Z,28.27
2019-02-06T13:12:09.407Z,128.75
2019-02-06T13:14:43.740Z,71.35
2019-02-06T13:17:18.351Z,58.70
2019-02-06T13:19:52.716Z,39.08
2019-02-06T13:22:27.299Z,25.40
2019-02-06T13:25:01.707Z,37.20
2019-02-06T13:27:37.102Z,22.93
2019-02-06T13:30:22.842Z,27.37
2019-02-06T13:33:11.731Z,33.50
2019-02-06T13:35:57.493Z,29.05
2019-02-06T13:38:41.327Z,21.12
2019-02-06T13:41:16.420Z,24.52
2019-02-06T13:43:50.820Z,28.40
2019-02-06T13:46:25.038Z,23.77
2019-02-06T13:49:02.429Z,31.12
2019-02-06T13:51:36.890Z,37.40
2019-02-06T13:54:11.185Z,29.70
2019-02-06T13:56:45.698Z,21.77
2019-02-06T13:59:20.577Z,24.57
2019-02-06T14:01:55.101Z,31.95
2019-02-06T14:04:29.397Z,60.12
2019-02-06T14:07:03.819Z,34.73
2019-02-06T14:09:38.465Z,31.37
2019-02-06T14:12:13.651Z,36.48
2019-02-06T14:14:47.981Z,105.55
2019-02-06T14:17:23.156Z,31.60
2019-02-06T14:19:57.510Z,33.83
2019-02-06T14:22:31.760Z,52.88
2019-02-06T14:25:21.432Z,32.95
2019-02-06T14:28:09.248Z,45.15
2019-02-06T14:31:14.656Z,64.40
2019-02-06T14:34:19.131Z,74.70
2019-02-06T14:37:37.900Z,58.95
2019-02-06T14:40:52.508Z,38.70
2019-02-06T14:43:48.683Z,22.75
2019-02-06T14:47:04.243Z,42.62
2019-02-06T14:50:02.747Z,30.05
2019-02-06T14:53:13.643Z,28.00
2019-02-06T14:56:14.190Z,55.98
2019-02-06T14:59:50.745Z,22.77
2019-02-06T15:03:18.000Z,38.55
2019-02-06T15:06:15.314Z,33.90
2019-02-06T15:09:01.542Z,14.20
2019-02-06T15:11:50.652Z,46.18
2019-02-06T15:14:35.214Z,18.82
2019-02-06T15:17:21.091Z,23.90
2019-02-06T15:20:38.361Z,35.08
2019-02-06T15:23:50.761Z,52.20
2019-02-06T15:27:07.478Z,94.90
2019-02-06T15:30:15.666Z,41.53
2019-02-06T15:33:32.003Z,60.98
2019-02-06T15:36:48.671Z,86.40
2019-02-06T15:40:12.773Z,80.67
2019-02-06T15:43:37.575Z,80.35
2019-02-06T15:46:46.595Z,89.03
2019-02-06T15:50:11.334Z,95.87
2019-02-06T15:53:09.741Z,102.30
2019-02-06T15:56:18.448Z,151.25
2019-02-06T15:59:28.625Z,160.63
2019-02-06T16:02:52.613Z,109.32
2019-02-06T16:06:13.409Z,238.97
2019-02-06T16:09:21.357Z,126.40
2019-02-06T16:12:12.292Z,179.50
2019-02-06T16:15:12.392Z,285.80
2019-02-06T16:18:29.207Z,134.78
2019-02-06T16:21:32.625Z,145.95
2019-02-06T16:24:45.460Z,176.45
2019-02-06T16:27:37.894Z,108.35
2019-02-06T16:31:03.908Z,131.30
2019-02-06T16:34:02.355Z,92.75
2019-02-06T16:36:58.364Z,68.87
2019-02-06T16:39:46.293Z,64.50
2019-02-06T16:43:01.223Z,60.90
2019-02-06T16:46:32.474Z,42.83
2019-02-06T16:49:25.804Z,44.18
2019-02-06T16:52:25.761Z,67.35
2019-02-06T16:55:30.703Z,101.22
2019-02-06T16:58:35.891Z,58.92
2019-02-06T17:02:06.844Z,54.65
2019-02-06T17:05:05.119Z,48.63
2019-02-06T17:08:36.397Z,46.35
2019-02-06T17:12:04.607Z,68.80
2019-02-06T17:15:15.970Z,53.13
2019-02-06T17:18:27.945Z,39.65
2019-02-06T17:21:48.749Z,60.98
2019-02-06T17:24:51.900Z,62.27
2019-02-06T17:28:04.215Z,65.62
2019-02-06T17:31:22.800Z,71.30
2019-02-06T17:34:39.920Z,41.28
2019-02-06T17:38:03.349Z,50.28
2019-02-06T17:41:34.665Z,68.77
2019-02-06T17:44:27.656Z,85.85
2019-02-06T17:47:28.739Z,88.05
2019-02-06T17:50:44.377Z,69.27
2019-02-06T17:53:48.149Z,82.55
2019-02-06T17:56:24.318Z,122.67
2019-02-06T17:58:59.622Z,107.90
2019-02-06T18:01:55.447Z,89.13
2019-02-06T18:04:32.390Z,80.15
2019-02-06T18:07:08.225Z,47.00
2019-02-06T18:09:52.380Z,48.08
2019-02-06T18:12:32.510Z,52.30
2019-02-06T18:15:07.656Z,29.30
2019-02-06T18:17:44.250Z,41.05
2019-02-06T18:20:19.232Z,31.85
2019-02-06T18:22:53.706Z,26.27
2019-02-06T18:25:28.169Z,18.70
2019-02-06T18:28:04.073Z,22.93
2019-02-06T18:30:39.105Z,21.80
2019-02-06T18:33:18.736Z,46.45
2019-02-06T18:35:51.938Z,33.63
2019-02-06T18:38:26.390Z,29.02
2019-02-06T18:41:01.163Z,49.77
2019-02-06T18:43:35.706Z,33.15
2019-02-06T18:46:10.307Z,75.45
2019-02-06T18:48:45.262Z,34.70
2019-02-06T18:51:19.640Z,35.33
2019-02-06T18:53:54.134Z,44.77
2019-02-06T18:56:28.434Z,42.30
2019-02-06T18:59:15.073Z,43.25
2019-02-06T19:02:01.064Z,65.52
2019-02-06T19:04:45.486Z,70.85
2019-02-06T19:07:29.224Z,58.40
2019-02-06T19:10:03.685Z,112.25
2019-02-06T19:12:50.712Z,60.33
2019-02-06T19:15:24.310Z,53.08
2019-02-06T19:17:58.658Z,53.90
2019-02-06T19:20:35.703Z,49.67
2019-02-06T19:23:09.502Z,35.17
2019-02-06T19:25:44.903Z,40.15
2019-02-06T19:28:19.358Z,32.28
2019-02-06T19:30:55.637Z,27.65
2019-02-06T19:33:29.719Z,26.37
2019-02-06T19:36:14.212Z,26.40
2019-02-06T19:39:02.392Z,45.55
2019-02-06T19:41:52.426Z,79.20
2019-02-06T19:44:38.948Z,133.90
2019-02-06T19:47:14.583Z,83.90
2019-02-06T19:49:49.225Z,59.38
2019-02-06T19:52:23.878Z,62.45
2019-02-06T19:54:59.929Z,51.00
2019-02-06T19:57:34.729Z,108.40
2019-02-06T20:00:13.294Z,106.58
2019-02-06T20:02:48.440Z,90.55
2019-02-06T20:05:23.314Z,101.38
2019-02-06T20:07:57.793Z,103.55
2019-02-06T20:10:43.929Z,97.85
2019-02-06T20:13:18.292Z,122.22
2019-02-06T20:15:52.722Z,142.00
2019-02-06T20:18:27.241Z,156.87
2019-02-06T20:21:01.646Z,144.90
2019-02-06T20:23:35.954Z,123.38
2019-02-06T20:26:09.908Z,211.77
2019-02-06T20:28:46.862Z,133.12
2019-02-06T20:31:22.100Z,149.25
2019-02-06T20:33:57.803Z,104.03
2019-02-06T20:36:40.523Z,182.80
2019-02-06T20:39:15.066Z,162.85
2019-02-06T20:41:49.360Z,166.37
2019-02-06T20:44:23.820Z,170.38
2019-02-06T20:47:00.556Z,180.55
2019-02-06T20:49:35.627Z,155.27
2019-02-06T20:52:10.554Z,303.35
2019-02-06T20:54:46.280Z,211.47
2019-02-06T20:57:20.185Z,115.32
2019-02-06T20:59:54.710Z,148.97
2019-02-06T21:02:37.872Z,164.28
2019-02-06T21:05:13.344Z,207.45
2019-02-06T21:07:47.634Z,182.80
2019-02-06T21:10:23.822Z,167.72
2019-02-06T21:12:58.315Z,208.02
2019-02-06T21:15:34.450Z,175.18
2019-02-06T21:18:09.054Z,143.28
2019-02-06T21:20:43.371Z,109.20
2019-02-06T21:23:19.453Z,211.75
2019-02-06T21:25:54.238Z,183.93
2019-02-06T21:28:31.014Z,173.50
2019-02-06T21:31:05.757Z,186.62
2019-02-06T21:33:40.047Z,139.85
2019-02-06T21:36:15.585Z,120.05
2019-02-06T21:38:49.874Z,140.77
2019-02-06T21:41:23.974Z,148.20
2019-02-06T21:43:59.491Z,142.43
2019-02-06T21:46:33.704Z,99.35
2019-02-06T21:49:08.293Z,100.47
2019-02-06T21:51:42.062Z,103.92
2019-02-06T21:54:20.322Z,111.42
2019-02-06T21:56:55.014Z,123.10
2019-02-06T21:59:29.255Z,140.92
2019-02-06T22:02:03.523Z,140.05
2019-02-06T22:04:37.688Z,138.70
2019-02-06T22:07:12.007Z,119.95
2019-02-06T22:09:46.221Z,148.28
2019-02-06T22:12:32.794Z,132.50
2019-02-06T22:15:11.199Z,87.35
2019-02-06T22:17:45.338Z,111.47
2019-02-06T22:20:20.033Z,99.50
2019-02-06T22:22:56.664Z,105.70
2019-02-06T22:25:30.788Z,121.85
2019-02-06T22:28:04.906Z,92.33
2019-02-06T22:30:38.961Z,141.80
2019-02-06T22:33:13.348Z,181.72
2019-02-06T22:35:47.672Z,220.63
2019-02-06T22:38:24.371Z,211.70
2019-02-06T22:40:58.672Z,252.35
2019-02-06T22:43:35.800Z,253.95
2019-02-06T22:46:09.675Z,242.65
2019-02-06T22:48:43.706Z,219.35
2019-02-06T22:51:19.034Z,161.40
2019-02-06T22:53:53.351Z,163.30
2019-02-06T22:56:27.807Z,140.50
2019-02-06T22:59:01.571Z,129.87
2019-02-06T23:01:48.566Z,148.97
2019-02-06T23:04:23.583Z,142.55
2019-02-06T23:06:57.787Z,143.07
2019-02-06T23:09:32.209Z,134.25
2019-02-06T23:12:16.202Z,130.50
2019-02-06T23:15:00.995Z,111.55
2019-02-06T23:17:47.375Z,109.97
2019-02-06T23:20:34.010Z,110.68
2019-02-06T23:23:18.604Z,113.22
2019-02-06T23:25:52.777Z,135.32
2019-02-06T23:28:28.170Z,93.17
2019-02-06T23:31:01.774Z,86.08
2019-02-06T23:33:36.997Z,81.47
2019-02-06T23:36:26.206Z,102.53
2019-02-06T23:39:00.523Z,81.75
2019-02-06T23:41:36.013Z,75.92
2019-02-06T23:44:12.340Z,78.33
2019-02-06T23:46:46.860Z,77.45
2019-02-06T23:49:20.855Z,71.10
2019-02-06T23:51:55.107Z,79.07
2019-02-06T23:54:29.241Z,69.12
2019-02-06T23:57:03.638Z,56.58
2019-02-06T23:59:37.864Z,50.43
